Time;durP1;ratioP1;P1;durP2;ratioP2;P2;SDS_P1;SDS_P2;PMS_P1;PMS_P2;Temp;Humidity;BMP_temperature;BMP_pressure;BME280_temperature;BME280_humidity;BME280_pressure;Samples;Min_cycle;Max_cycle;Signal;HPM_P1;HPM_P2
2023/12/06 00:01:54;;;;;;;12.23;11.00;;;;;;;4.17;93.75;99969.34;7391445;19;20425;-59
2023/12/06 00:04:21;;;;;;;12.15;10.95;;;;;;;4.19;93.62;99970.84;7395150;19;20364;-61
2023/12/06 00:06:48;;;;;;;11.95;10.75;;;;;;;4.22;93.67;99964.47;7395984;19;20345;-62
2023/12/06 00:09:15;;;;;;;11.70;10.50;;;;;;;4.25;93.61;99977.25;7397450;19;20738;-61
2023/12/06 00:11:43;;;;;;;11.45;10.35;;;;;;;4.28;93.64;99971.72;7395226;19;20364;-61
2023/12/06 00:14:10;;;;;;;12.45;11.25;;;;;;;4.31;93.39;99970.59;7396679;19;20428;-61
2023/12/06 00:16:40;;;;;;;12.13;10.93;;;;;;;4.34;93.68;99971.13;7397014;19;20361;-60
2023/12/06 00:19:07;;;;;;;13.10;11.80;;;;;;;4.36;93.47;99971.78;7395202;19;20372;-62
2023/12/06 00:21:34;;;;;;;13.35;11.95;;;;;;;4.38;93.24;99977.72;7392712;19;20384;-61
2023/12/06 00:24:04;;;;;;;13.25;11.95;;;;;;;4.40;93.30;99982.81;7397429;19;20372;-62
2023/12/06 00:26:31;;;;;;;14.80;12.70;;;;;;;4.40;93.23;99982.81;7395215;19;20372;-61
2023/12/06 00:28:58;;;;;;;16.77;15.07;;;;;;;4.42;93.48;99971.19;7396700;19;20460;-61
2023/12/06 00:31:25;;;;;;;15.48;13.93;;;;;;;4.45;93.31;99980.56;7396219;19;20345;-62
2023/12/06 00:33:52;;;;;;;14.77;13.30;;;;;;;4.45;93.05;99985.81;7395728;19;20363;-61
2023/12/06 00:36:19;;;;;;;14.60;12.32;;;;;;;4.46;93.05;99987.44;7395565;19;20750;-62
2023/12/06 00:38:46;;;;;;;12.73;11.45;;;;;;;4.45;92.84;99991.88;7396978;19;20679;-62
2023/12/06 00:41:13;;;;;;;13.00;11.70;;;;;;;4.47;92.98;99995.19;7391989;19;20658;-60
2023/12/06 00:43:40;;;;;;;13.13;11.75;;;;;;;4.47;92.84;99989.94;7396440;19;20731;-61
2023/12/06 00:46:06;;;;;;;13.82;12.38;;;;;;;4.46;92.33;99990.91;7395792;19;20458;-62
2023/12/06 00:48:33;;;;;;;13.20;11.82;;;;;;;4.44;92.62;99992.88;7396985;19;20757;-61
2023/12/06 00:51:01;;;;;;;13.40;12.10;;;;;;;4.44;92.35;99990.25;7394809;19;20365;-61
2023/12/06 00:53:30;;;;;;;12.93;11.63;;;;;;;4.44;92.46;99987.63;7395012;19;20368;-61
2023/12/06 00:55:56;;;;;;;13.38;12.07;;;;;;;4.44;92.65;99992.88;7395150;19;20423;-60
2023/12/06 00:58:23;;;;;;;14.93;13.48;;;;;;;4.44;92.50;99994.66;7393678;19;20369;-60
2023/12/06 01:00:50;;;;;;;15.48;13.88;;;;;;;4.42;92.85;99992.19;7395622;19;20423;-61
2023/12/06 01:03:17;;;;;;;14.93;13.43;;;;;;;4.42;92.66;99992.19;7394295;19;20357;-60
2023/12/06 01:05:44;;;;;;;16.17;14.47;;;;;;;4.43;92.86;100003.53;7394419;19;20361;-62
2023/12/06 01:08:11;;;;;;;14.98;13.57;;;;;;;4.40;92.39;100001.19;7394608;19;20380;-61
2023/12/06 01:10:37;;;;;;;14.20;12.80;;;;;;;4.40;92.71;100002.03;7396127;19;20400;-60
2023/12/06 01:13:04;;;;;;;13.93;12.52;;;;;;;4.38;92.57;100017.13;7393239;19;20431;-61
2023/12/06 01:15:31;;;;;;;14.90;13.40;;;;;;;4.37;92.48;100020.69;7395893;19;20440;-61
2023/12/06 01:17:58;;;;;;;13.85;12.55;;;;;;;4.35;92.51;100025.28;7391522;19;20356;-61
2023/12/06 01:20:25;;;;;;;14.90;13.40;;;;;;;4.32;92.47;100025.59;7393545;19;20389;-61
2023/12/06 01:22:52;;;;;;;14.68;13.18;;;;;;;4.32;92.79;100027.41;7395120;19;20882;-61
2023/12/06 01:25:18;;;;;;;14.73;13.30;;;;;;;4.30;93.01;100030.16;7395777;19;20355;-61
2023/12/06 01:27:45;;;;;;;14.05;12.73;;;;;;;4.25;92.42;100041.13;7394434;19;20420;-62
2023/12/06 01:30:12;;;;;;;14.88;13.38;;;;;;;4.20;92.45;100043.34;7394306;19;20368;-59
2023/12/06 01:32:40;;;;;;;14.93;13.43;;;;;;;4.15;92.46;100042.16;7394314;19;20391;-61
2023/12/06 01:35:08;;;;;;;15.23;13.77;;;;;;;4.12;93.07;100039.84;7391745;19;20394;-61
2023/12/06 01:37:34;;;;;;;14.83;13.37;;;;;;;4.10;93.24;100039.97;7393846;19;20390;-61
2023/12/06 01:40:04;;;;;;;14.65;13.18;;;;;;;4.06;93.34;100039.47;7391371;19;21007;-62
2023/12/06 01:42:31;;;;;;;15.30;13.90;;;;;;;4.06;93.57;100033.41;7391507;19;20368;-62
2023/12/06 01:44:58;;;;;;;15.20;13.60;;;;;;;4.02;93.87;100040.72;7391218;19;20833;-60
2023/12/06 01:47:27;;;;;;;14.10;12.80;;;;;;;3.99;94.14;100053.31;7390592;19;20392;-60
2023/12/06 01:49:57;;;;;;;14.25;12.90;;;;;;;3.94;94.78;100056.38;7390719;19;20434;-60
2023/12/06 01:52:24;;;;;;;12.77;11.57;;;;;;;3.89;94.92;100050.78;7391734;19;20381;-61
2023/12/06 01:54:51;;;;;;;11.85;10.75;;;;;;;3.80;95.19;100052.44;7393738;19;20446;-61
2023/12/06 01:57:18;;;;;;;11.20;10.17;;;;;;;3.77;95.30;100059.81;7390776;19;20352;-60
2023/12/06 01:59:47;;;;;;;11.05;9.95;;;;;;;3.72;94.95;100057.63;7392798;19;20360;-62
2023/12/06 02:02:14;;;;;;;11.20;10.00;;;;;;;3.66;94.90;100061.66;7391687;19;20867;-63
2023/12/06 02:04:41;;;;;;;15.98;9.70;;;;;;;3.56;95.25;100063.50;7391506;19;20416;-61
2023/12/06 02:07:08;;;;;;;9.07;7.63;;;;;;;3.45;95.53;100056.63;7393686;19;20390;-62
2023/12/06 02:09:35;;;;;;;8.85;7.00;;;;;;;3.34;95.96;100058.63;7392659;19;20401;-61
2023/12/06 02:12:02;;;;;;;7.93;6.70;;;;;;;3.29;96.29;100060.84;7386657;19;20385;-61
2023/12/06 02:14:34;;;;;;;7.75;6.70;;;;;;;3.24;96.48;100064.72;7392710;19;20368;-59
2023/12/06 02:17:05;;;;;;;7.38;6.68;;;;;;;3.21;96.34;100067.63;7390790;19;20364;-62
2023/12/06 02:19:32;;;;;;;7.40;6.70;;;;;;;3.16;97.14;100071.66;7391919;19;20371;-62
2023/12/06 02:22:00;;;;;;;8.05;7.25;;;;;;;3.16;96.94;100077.69;7390861;19;20348;-61
2023/12/06 02:24:30;;;;;;;8.48;7.70;;;;;;;3.16;97.52;100082.13;7391153;19;20369;-62
2023/12/06 02:26:57;;;;;;;8.57;7.78;;;;;;;3.14;97.61;100073.56;7392199;19;20690;-61
2023/12/06 02:29:24;;;;;;;10.40;9.20;;;;;;;3.11;97.93;100073.88;7393013;19;20884;-63
2023/12/06 02:31:51;;;;;;;10.57;9.57;;;;;;;3.09;98.34;100071.38;7393075;19;20436;-62
2023/12/06 02:34:22;;;;;;;9.65;8.75;;;;;;;3.03;98.57;100066.72;7391252;19;20356;-62
2023/12/06 02:36:55;;;;;;;10.65;9.23;;;;;;;3.00;99.01;100077.50;7393030;19;20372;-62
2023/12/06 02:39:22;;;;;;;9.68;8.68;;;;;;;2.94;99.17;100071.00;7392787;19;20871;-62
2023/12/06 02:41:49;;;;;;;9.98;9.02;;;;;;;2.91;99.35;100073.06;7391011;19;20365;-62
2023/12/06 02:44:16;;;;;;;11.27;8.90;;;;;;;2.89;99.28;100078.47;7392306;19;20352;-62
2023/12/06 02:46:44;;;;;;;10.57;9.07;;;;;;;2.84;99.74;100078.06;7392629;19;20360;-62
2023/12/06 02:49:10;;;;;;;10.48;9.10;;;;;;;2.84;99.42;100073.63;7390998;19;20368;-63
2023/12/06 02:51:37;;;;;;;10.32;8.73;;;;;;;2.83;99.62;100072.00;7392193;19;20762;-62
2023/12/06 02:54:04;;;;;;;10.35;8.95;;;;;;;2.83;99.50;100077.22;7392523;19;20353;-62
2023/12/06 02:56:31;;;;;;;10.75;9.25;;;;;;;2.84;99.43;100076.25;7391857;19;20364;-62
2023/12/06 02:58:58;;;;;;;9.65;8.65;;;;;;;2.79;99.68;100078.47;7392563;19;20360;-62
2023/12/06 03:01:24;;;;;;;9.95;8.95;;;;;;;2.77;99.85;100083.03;7391583;19;20364;-63
2023/12/06 03:03:52;;;;;;;10.02;9.05;;;;;;;2.76;99.83;100084.00;7392499;19;20365;-60
2023/12/06 03:06:18;;;;;;;12.32;9.02;;;;;;;2.77;99.80;100080.41;7398499;19;21268;-63
2023/12/06 03:08:45;;;;;;;9.88;8.95;;;;;;;2.72;99.70;100084.41;7397013;19;20892;-62
2023/12/06 03:11:13;;;;;;;10.23;9.23;;;;;;;2.71;99.45;100088.00;7399569;19;20368;-61
2023/12/06 03:13:40;;;;;;;9.70;8.67;;;;;;;2.68;99.35;100089.09;7398810;19;20374;-62
2023/12/06 03:16:07;;;;;;;9.20;8.30;;;;;;;2.66;99.23;100085.81;7398008;19;20412;-61
2023/12/06 03:18:34;;;;;;;10.57;9.57;;;;;;;2.65;99.03;100084.13;7399167;19;20364;-62
2023/12/06 03:21:01;;;;;;;10.68;9.52;;;;;;;2.64;98.96;100092.97;7396801;19;20406;-62
2023/12/06 03:23:28;;;;;;;10.57;9.45;;;;;;;2.63;99.10;100086.06;7398173;19;20369;-62
2023/12/06 03:25:55;;;;;;;9.98;8.82;;;;;;;2.65;99.09;100084.13;7399543;19;20348;-61
2023/12/06 03:28:22;;;;;;;10.33;9.30;;;;;;;2.64;98.86;100092.97;7399594;19;20434;-62
2023/12/06 03:30:49;;;;;;;10.13;9.13;;;;;;;2.67;98.67;100084.81;7399177;19;20352;-61
2023/12/06 03:33:16;;;;;;;10.45;9.35;;;;;;;2.67;98.66;100097.91;7397072;19;20368;-62
2023/12/06 03:35:42;;;;;;;10.25;9.25;;;;;;;2.68;98.48;100098.72;7397876;19;20365;-61
2023/12/06 03:38:10;;;;;;;10.40;9.40;;;;;;;2.71;98.46;100095.84;7398860;19;20352;-60
2023/12/06 03:40:37;;;;;;;10.18;9.18;;;;;;;2.71;98.07;100104.53;7398379;19;20361;-61
2023/12/06 03:43:04;;;;;;;9.55;8.63;;;;;;;2.72;98.13;100105.34;7395947;19;20736;-61
2023/12/06 03:45:31;;;;;;;9.95;8.95;;;;;;;2.73;97.91;100101.78;7398021;19;20363;-61
2023/12/06 03:47:57;;;;;;;9.80;8.85;;;;;;;2.72;97.59;100100.97;7397616;19;20449;-61
2023/12/06 03:50:24;;;;;;;9.40;8.40;;;;;;;2.73;97.64;100101.78;7397743;19;20356;-62
2023/12/06 03:52:51;;;;;;;9.30;8.40;;;;;;;2.72;97.45;100108.81;7396919;19;20372;-62
2023/12/06 03:55:18;;;;;;;9.65;8.75;;;;;;;2.73;97.24;100113.06;7396624;19;20436;-61
2023/12/06 03:57:45;;;;;;;9.63;8.70;;;;;;;2.73;97.53;100113.06;7396975;19;20360;-61
2023/12/06 04:00:13;;;;;;;10.15;9.15;;;;;;;2.72;97.24;100118.44;7396566;19;20352;-61
2023/12/06 04:02:40;;;;;;;9.82;8.85;;;;;;;2.68;97.26;100125.78;7395208;19;20360;-62
2023/12/06 04:05:08;;;;;;;9.57;8.68;;;;;;;2.64;97.65;100121.78;7398374;19;20380;-61
2023/12/06 04:07:35;;;;;;;9.80;8.80;;;;;;;2.63;97.68;100134.00;7395497;19;20353;-61
2023/12/06 04:10:02;;;;;;;9.88;8.88;;;;;;;2.59;97.47;100126.56;7397307;19;21321;-61
2023/12/06 04:12:29;;;;;;;10.73;9.63;;;;;;;2.54;97.62;100136.66;7396389;19;20367;-61
2023/12/06 04:14:55;;;;;;;11.80;9.80;;;;;;;2.53;97.25;100132.34;7398193;19;20372;-61
2023/12/06 04:17:22;;;;;;;12.15;10.90;;;;;;;2.45;97.19;100133.88;7395524;19;20375;-60
2023/12/06 04:19:51;;;;;;;12.35;11.10;;;;;;;2.43;97.07;100132.38;7396809;19;20352;-61
2023/12/06 04:22:18;;;;;;;12.75;11.45;;;;;;;2.42;97.36;100131.53;7395303;19;20372;-62
2023/12/06 04:24:45;;;;;;;14.00;12.40;;;;;;;2.37;97.29;100133.72;7396238;19;20356;-61
2023/12/06 04:27:12;;;;;;;13.10;11.80;;;;;;;2.32;97.64;100141.16;7397039;19;20366;-61
2023/12/06 04:29:39;;;;;;;15.23;12.57;;;;;;;2.29;97.81;100141.41;7397133;19;20359;-60
2023/12/06 04:32:06;;;;;;;13.73;12.27;;;;;;;2.32;97.83;100151.63;7397819;19;20689;-61
2023/12/06 04:34:33;;;;;;;15.00;13.40;;;;;;;2.30;97.66;100153.56;7395887;19;20352;-61
2023/12/06 04:37:00;;;;;;;14.68;12.95;;;;;;;2.26;98.03;100152.19;7397108;19;20352;-60
2023/12/06 04:39:27;;;;;;;15.57;13.85;;;;;;;2.24;97.91;100154.09;7396029;19;20730;-61
2023/12/06 04:41:54;;;;;;;14.70;13.02;;;;;;;2.22;98.01;100151.59;7396266;19;20360;-61
2023/12/06 04:44:20;;;;;;;15.07;13.50;;;;;;;2.20;98.29;100155.31;7397514;19;20432;-61
2023/12/06 04:46:49;;;;;;;17.02;14.38;;;;;;;2.22;98.23;100156.03;7396021;19;20389;-61
2023/12/06 04:49:16;;;;;;;15.35;13.68;;;;;;;2.22;98.27;100161.25;7396300;19;20473;-61
2023/12/06 04:51:43;;;;;;;15.35;13.65;;;;;;;2.20;98.35;100157.94;7394607;19;20894;-62
2023/12/06 04:54:10;;;;;;;17.58;14.45;;;;;;;2.18;98.65;100159.88;7396237;19;20411;-62
2023/12/06 04:56:37;;;;;;;17.13;14.55;;;;;;;2.17;98.51;100169.50;7397016;19;20436;-59
2023/12/06 04:59:03;;;;;;;18.08;14.93;;;;;;;2.18;98.81;100168.53;7397520;19;20344;-61
2023/12/06 05:01:30;;;;;;;16.95;15.07;;;;;;;2.18;99.04;100167.72;7396531;19;20364;-62
2023/12/06 05:03:57;;;;;;;17.33;15.05;;;;;;;2.16;98.92;100173.06;7392094;19;20389;-61
2023/12/06 05:06:24;;;;;;;17.48;15.13;;;;;;;2.12;99.12;100165.63;7394866;19;20375;-62
2023/12/06 05:08:51;;;;;;;16.80;14.97;;;;;;;2.07;99.22;100170.44;7395237;19;20936;-60
2023/12/06 05:11:18;;;;;;;16.25;14.13;;;;;;;2.02;99.45;100173.47;7396430;19;20371;-60
2023/12/06 05:13:44;;;;;;;16.83;14.60;;;;;;;1.99;99.48;100169.31;7394438;19;20360;-60
2023/12/06 05:16:11;;;;;;;17.23;15.07;;;;;;;1.93;99.64;100167.22;7395681;19;20345;-62
2023/12/06 05:18:38;;;;;;;16.88;14.85;;;;;;;1.92;99.88;100160.34;7393210;19;20380;-61
2023/12/06 05:21:05;;;;;;;16.63;13.57;;;;;;;1.89;100.00;100167.59;7395059;19;20369;-61
2023/12/06 05:23:32;;;;;;;16.70;14.27;;;;;;;1.85;100.00;100177.53;7390243;19;20873;-61
2023/12/06 05:25:58;;;;;;;17.35;15.45;;;;;;;1.87;100.00;100177.38;7394179;19;20340;-60
2023/12/06 05:28:25;;;;;;;18.33;15.48;;;;;;;1.88;100.00;100173.81;7395072;19;20436;-60
2023/12/06 05:30:52;;;;;;;19.10;15.57;;;;;;;1.89;100.00;100178.91;7393523;19;20881;-61
2023/12/06 05:33:19;;;;;;;19.25;16.52;;;;;;;1.89;100.00;100181.53;7392231;19;20360;-61
2023/12/06 05:35:46;;;;;;;18.65;16.48;;;;;;;1.89;100.00;100185.91;7396080;19;20953;-61
2023/12/06 05:38:13;;;;;;;23.30;18.00;;;;;;;1.86;100.00;100192.25;7395810;19;20930;-62
2023/12/06 05:40:40;;;;;;;20.80;18.00;;;;;;;1.87;100.00;100187.84;7395444;19;20370;-61
2023/12/06 05:43:07;;;;;;;21.80;18.33;;;;;;;1.86;100.00;100191.44;7392981;19;20360;-61
2023/12/06 05:45:33;;;;;;;23.58;19.05;;;;;;;1.89;100.00;100193.75;7392596;19;20884;-62
2023/12/06 05:48:00;;;;;;;22.02;18.58;;;;;;;1.89;100.00;100192.00;7395619;19;20348;-61
2023/12/06 05:50:27;;;;;;;24.25;19.67;;;;;;;1.89;100.00;100196.38;7392529;19;20693;-61
2023/12/06 05:52:54;;;;;;;23.88;19.35;;;;;;;1.89;100.00;100197.22;7393432;19;20356;-61
2023/12/06 05:55:21;;;;;;;22.48;19.25;;;;;;;1.88;100.00;100194.75;7386848;19;20372;-59
2023/12/06 05:57:48;;;;;;;23.85;19.73;;;;;;;1.89;100.00;100192.00;7394886;19;20364;-61
2023/12/06 06:00:17;;;;;;;21.85;19.45;;;;;;;1.92;100.00;100196.13;7392199;19;20880;-59
2023/12/06 06:02:44;;;;;;;22.57;19.10;;;;;;;1.91;100.00;100200.50;7394184;19;20352;-61
2023/12/06 06:05:11;;;;;;;22.77;19.83;;;;;;;1.90;100.00;100198.88;7392203;19;20412;-62
2023/12/06 06:07:38;;;;;;;24.17;19.83;;;;;;;1.92;100.00;100199.56;7394630;19;20360;-61
2023/12/06 06:10:07;;;;;;;22.90;20.17;;;;;;;1.92;99.83;100206.59;7392780;19;20384;-60
2023/12/06 06:12:35;;;;;;;22.60;19.77;;;;;;;1.91;99.72;100205.75;7393564;19;20364;-60
2023/12/06 06:15:02;;;;;;;22.15;19.25;;;;;;;1.92;99.70;100207.41;7394555;19;20749;-60
2023/12/06 06:17:29;;;;;;;21.55;19.17;;;;;;;1.91;99.74;100205.75;7395179;19;20364;-60
2023/12/06 06:19:56;;;;;;;22.90;20.50;;;;;;;1.93;99.62;100211.69;7392373;19;20352;-60
2023/12/06 06:22:22;;;;;;;22.63;19.90;;;;;;;1.90;99.24;100213.75;7394703;19;20561;-60
2023/12/06 06:24:49;;;;;;;22.40;20.00;;;;;;;1.87;99.15;100211.38;7393061;19;20440;-61
2023/12/06 06:27:16;;;;;;;22.40;19.65;;;;;;;1.91;99.46;100212.78;7393499;19;20381;-61
2023/12/06 06:29:44;;;;;;;21.60;19.33;;;;;;;1.89;99.19;100210.31;7390807;19;20368;-59
2023/12/06 06:32:11;;;;;;;23.17;20.52;;;;;;;1.92;99.01;100217.88;7393500;19;20364;-60
2023/12/06 06:34:37;;;;;;;23.50;20.83;;;;;;;1.94;99.18;100221.19;7393442;19;20777;-61
2023/12/06 06:37:08;;;;;;;22.38;19.92;;;;;;;1.96;99.10;100213.22;7392474;19;20368;-61
2023/12/06 06:39:35;;;;;;;23.60;21.02;;;;;;;1.95;98.98;100222.84;7395398;19;20344;-60
2023/12/06 06:42:03;;;;;;;22.45;19.98;;;;;;;1.99;98.98;100219.00;7400839;19;20333;-60
2023/12/06 06:44:30;;;;;;;23.45;20.95;;;;;;;2.01;98.92;100221.50;7400516;19;20462;-60
2023/12/06 06:46:57;;;;;;;23.50;20.98;;;;;;;2.01;98.56;100216.25;7399778;19;20859;-60
2023/12/06 06:49:24;;;;;;;23.65;20.42;;;;;;;1.97;98.25;100223.53;7400547;19;20752;-60
2023/12/06 06:51:51;;;;;;;22.77;20.00;;;;;;;1.93;98.51;100230.00;7399848;19;20384;-60
2023/12/06 06:54:18;;;;;;;22.88;20.20;;;;;;;1.83;98.27;100229.97;7399463;19;20714;-60
2023/12/06 06:56:45;;;;;;;21.95;19.63;;;;;;;1.77;98.12;100234.88;7399654;19;20707;-59
2023/12/06 06:59:12;;;;;;;22.90;20.40;;;;;;;1.74;98.44;100238.59;7400745;19;20927;-60
2023/12/06 07:01:39;;;;;;;23.58;20.90;;;;;;;1.73;98.49;100243.94;7399657;19;20443;-61
2023/12/06 07:04:06;;;;;;;26.42;21.67;;;;;;;1.75;98.36;100248.06;7398058;19;20427;-59
2023/12/06 07:06:33;;;;;;;22.45;19.92;;;;;;;1.73;98.48;100243.94;7398197;19;20360;-60
2023/12/06 07:09:00;;;;;;;23.38;20.90;;;;;;;1.73;98.05;100244.75;7399137;19;20919;-60
2023/12/06 07:11:29;;;;;;;24.83;21.23;;;;;;;1.76;97.94;100261.97;7399560;19;20436;-60
2023/12/06 07:13:56;;;;;;;22.92;20.45;;;;;;;1.73;97.67;100259.63;7398662;19;20412;-60
2023/12/06 07:16:27;;;;;;;24.38;21.25;;;;;;;1.74;97.69;100263.88;7397915;19;20368;-60
2023/12/06 07:18:54;;;;;;;23.83;21.33;;;;;;;1.75;97.60;100273.41;7399422;19;20372;-59
2023/12/06 07:21:21;;;;;;;23.98;21.40;;;;;;;1.71;97.11;100277.22;7397628;19;20372;-61
2023/12/06 07:23:48;;;;;;;24.88;22.10;;;;;;;1.67;97.19;100284.50;7397887;19;20375;-61
2023/12/06 07:26:15;;;;;;;24.65;22.05;;;;;;;1.67;97.17;100281.06;7399156;19;20361;-60
2023/12/06 07:28:42;;;;;;;24.33;21.83;;;;;;;1.67;96.93;100281.06;7399719;19;20377;-60
2023/12/06 07:31:09;;;;;;;25.48;21.75;;;;;;;1.68;96.94;100287.94;7395172;19;21294;-60
2023/12/06 07:33:35;;;;;;;24.73;22.13;;;;;;;1.65;96.44;100286.41;7398985;19;20348;-61
2023/12/06 07:36:03;;;;;;;22.85;20.48;;;;;;;1.64;95.85;100287.38;7398645;19;20372;-60
2023/12/06 07:38:30;;;;;;;23.65;21.08;;;;;;;1.72;96.21;100291.94;7397742;19;20875;-61
2023/12/06 07:40:57;;;;;;;23.50;21.08;;;;;;;1.73;95.69;100298.84;7396055;19;21026;-60
2023/12/06 07:43:25;;;;;;;22.30;20.00;;;;;;;1.76;95.18;100301.19;7391465;19;20723;-60
2023/12/06 07:45:52;;;;;;;21.30;19.10;;;;;;;1.76;94.53;100302.03;7398514;19;20385;-61
2023/12/06 07:48:19;;;;;;;21.08;18.88;;;;;;;1.79;94.16;100295.72;7396385;19;20377;-60
2023/12/06 07:50:46;;;;;;;20.98;18.77;;;;;;;1.76;93.87;100301.19;7398363;19;20392;-60
2023/12/06 07:53:13;;;;;;;21.40;19.20;;;;;;;1.80;93.77;100303.44;7398408;19;20356;-61
2023/12/06 07:55:40;;;;;;;21.17;18.98;;;;;;;1.83;93.97;100312.81;7396472;19;20485;-60
2023/12/06 07:58:07;;;;;;;22.38;19.98;;;;;;;1.84;93.98;100310.06;7395211;19;20376;-59
2023/12/06 08:00:36;;;;;;;22.33;19.93;;;;;;;1.84;93.37;100315.28;7397504;19;20847;-61
2023/12/06 08:03:04;;;;;;;21.45;19.25;;;;;;;1.87;93.42;100314.22;7395441;19;20364;-61
2023/12/06 08:05:31;;;;;;;22.05;19.75;;;;;;;1.92;93.38;100322.50;7397110;19;20959;-61
2023/12/06 08:07:57;;;;;;;22.23;19.92;;;;;;;1.92;93.31;100319.91;7397370;19;20392;-61
2023/12/06 08:10:26;;;;;;;20.88;18.70;;;;;;;1.93;93.24;100316.31;7396109;19;20423;-61
2023/12/06 08:12:57;;;;;;;23.42;20.92;;;;;;;1.98;93.55;100327.22;7392879;19;20356;-60
2023/12/06 08:15:24;;;;;;;22.08;19.67;;;;;;;1.94;92.88;100320.59;7396064;19;20485;-61
2023/12/06 08:17:51;;;;;;;23.00;20.58;;;;;;;1.99;93.29;100328.88;7395852;19;21447;-60
2023/12/06 08:20:18;;;;;;;22.45;20.05;;;;;;;2.04;93.24;100321.50;7397827;19;20947;-61
2023/12/06 08:22:45;;;;;;;22.00;19.60;;;;;;;2.10;93.18;100321.91;7397062;19;20712;-59
2023/12/06 08:25:11;;;;;;;23.13;20.35;;;;;;;2.10;92.81;100327.16;7393535;19;20387;-60
2023/12/06 08:27:39;;;;;;;21.88;19.60;;;;;;;2.11;92.71;100331.44;7396147;19;20859;-62
2023/12/06 08:30:06;;;;;;;20.70;18.60;;;;;;;2.10;92.81;100335.00;7393882;19;20729;-60
2023/12/06 08:32:33;;;;;;;21.88;19.63;;;;;;;2.12;92.91;100335.69;7396846;19;20432;-60
2023/12/06 08:35:03;;;;;;;21.75;19.45;;;;;;;2.14;92.67;100333.78;7394769;19;20368;-61
2023/12/06 08:37:29;;;;;;;21.37;19.07;;;;;;;2.13;92.47;100340.00;7396430;19;20437;-58
2023/12/06 08:39:56;;;;;;;21.92;19.63;;;;;;;2.13;92.55;100345.22;7392793;19;20364;-61
2023/12/06 08:42:23;;;;;;;20.13;18.02;;;;;;;2.07;92.42;100345.75;7395077;19;20449;-60
2023/12/06 08:44:50;;;;;;;20.92;18.77;;;;;;;2.11;92.38;100342.72;7394523;19;20432;-61
2023/12/06 08:47:20;;;;;;;21.40;19.15;;;;;;;2.15;92.59;100349.38;7394589;19;20420;-60
2023/12/06 08:49:48;;;;;;;21.60;19.30;;;;;;;2.19;92.83;100349.91;7395139;19;20801;-61
2023/12/06 08:52:15;;;;;;;21.27;19.08;;;;;;;2.20;92.33;100351.59;7396310;19;20516;-61
2023/12/06 08:54:42;;;;;;;20.77;18.45;;;;;;;2.20;92.19;100354.22;7394620;19;20373;-61
2023/12/06 08:57:09;;;;;;;21.50;19.23;;;;;;;2.21;92.56;100359.31;7394034;19;20388;-60
2023/12/06 08:59:36;;;;;;;20.30;18.20;;;;;;;2.13;91.97;100361.75;7386980;19;20392;-62
2023/12/06 09:02:04;;;;;;;21.00;18.80;;;;;;;2.11;92.14;100362.84;7391739;19;20365;-61
2023/12/06 09:04:31;;;;;;;19.75;17.75;;;;;;;2.07;91.83;100362.25;7392198;19;20393;-61
2023/12/06 09:06:58;;;;;;;19.80;17.70;;;;;;;2.12;91.80;100367.09;7395928;19;20352;-60
2023/12/06 09:09:25;;;;;;;21.27;19.08;;;;;;;2.14;91.60;100373.03;7396196;19;20369;-61
2023/12/06 09:11:53;;;;;;;20.75;18.50;;;;;;;2.13;91.37;100376.63;7394239;19;20368;-61
2023/12/06 09:14:19;;;;;;;20.27;18.08;;;;;;;2.11;91.19;100368.06;7395202;19;20392;-61
2023/12/06 09:16:47;;;;;;;20.02;17.92;;;;;;;2.06;90.75;100383.31;7394684;19;20349;-61
2023/12/06 09:19:14;;;;;;;21.38;19.05;;;;;;;2.03;90.83;100385.22;7395124;19;20446;-61
2023/12/06 09:21:45;;;;;;;21.55;19.25;;;;;;;1.99;90.65;100385.59;7394273;19;20357;-61
2023/12/06 09:24:13;;;;;;;22.52;20.13;;;;;;;1.98;91.05;100379.56;7390976;19;20763;-61
2023/12/06 09:26:41;;;;;;;23.30;20.50;;;;;;;1.98;91.08;100384.78;7389098;19;20357;-61
2023/12/06 09:29:09;;;;;;;23.95;21.20;;;;;;;1.96;91.17;100386.69;7390228;19;20353;-60
2023/12/06 09:31:37;;;;;;;23.10;20.60;;;;;;;1.99;91.20;100380.38;7386304;19;20689;-60
2023/12/06 09:34:05;;;;;;;23.52;20.88;;;;;;;1.97;91.30;100383.09;7387739;19;20922;-61
2023/12/06 09:36:32;;;;;;;24.50;21.63;;;;;;;2.00;91.58;100388.09;7390847;19;20377;-60
2023/12/06 09:39:00;;;;;;;24.85;21.30;;;;;;;2.08;91.56;100391.88;7390318;19;20348;-61
2023/12/06 09:41:31;;;;;;;24.17;21.60;;;;;;;2.07;91.36;100390.22;7391827;19;20514;-59
2023/12/06 09:44:02;;;;;;;23.40;20.90;;;;;;;2.05;90.75;100395.56;7392430;19;20909;-61
2023/12/06 09:46:29;;;;;;;24.23;21.70;;;;;;;2.04;90.75;100389.50;7394477;19;20360;-59
2023/12/06 09:48:55;;;;;;;23.20;20.70;;;;;;;2.03;90.34;100392.25;7393710;19;20851;-60
2023/12/06 09:51:27;;;;;;;24.90;22.30;;;;;;;2.07;90.51;100405.91;7383739;19;20352;-60
2023/12/06 09:53:54;;;;;;;23.85;21.38;;;;;;;2.11;90.26;100402.09;7394089;19;20428;-60
2023/12/06 09:56:22;;;;;;;25.30;22.60;;;;;;;2.09;90.12;100407.44;7386192;19;21080;-61
2023/12/06 09:58:48;;;;;;;25.38;22.67;;;;;;;2.10;90.05;100403.84;7392542;19;20935;-61
2023/12/06 10:01:15;;;;;;;25.27;22.58;;;;;;;2.10;89.95;100408.25;7392041;19;20396;-61
2023/12/06 10:03:42;;;;;;;25.13;22.52;;;;;;;2.13;89.69;100408.03;7388795;19;20373;-60
2023/12/06 10:06:10;;;;;;;26.17;23.38;;;;;;;2.15;89.78;100409.56;7387826;19;20764;-61
2023/12/06 10:08:36;;;;;;;27.77;23.87;;;;;;;2.19;89.96;100404.88;7393616;19;20417;-60
2023/12/06 10:11:06;;;;;;;25.58;22.88;;;;;;;2.22;89.58;100404.63;7391853;19;20346;-61
2023/12/06 10:13:40;;;;;;;26.50;23.65;;;;;;;2.20;89.53;100398.69;7393747;19;20702;-61
2023/12/06 10:16:20;;;;;;;27.48;24.58;;;;;;;2.28;89.93;100405.91;7390063;19;20430;-60
2023/12/06 10:18:52;;;;;;;28.33;25.33;;;;;;;2.30;89.84;100399.59;7393171;19;20353;-61
2023/12/06 10:21:20;;;;;;;27.95;24.92;;;;;;;2.27;89.75;100406.84;7393134;19;20370;-61
2023/12/06 10:23:59;;;;;;;28.02;25.13;;;;;;;2.22;89.88;100394.97;7392878;19;20367;-61
2023/12/06 10:26:30;;;;;;;29.13;26.05;;;;;;;2.25;90.19;100404.38;7390685;19;20368;-60
2023/12/06 10:28:58;;;;;;;31.47;28.07;;;;;;;2.21;90.10;100410.81;7392443;19;20457;-61
2023/12/06 10:31:26;;;;;;;31.23;27.67;;;;;;;2.13;90.46;100415.88;7394312;19;20368;-62
2023/12/06 10:33:55;;;;;;;31.93;28.57;;;;;;;2.13;90.62;100414.09;7392794;19;20730;-61
2023/12/06 10:36:27;;;;;;;33.13;29.40;;;;;;;2.11;90.61;100425.63;7389961;19;20884;-61
2023/12/06 10:38:58;;;;;;;33.47;29.88;;;;;;;2.03;90.82;100423.63;7394038;19;20328;-61
2023/12/06 10:41:26;;;;;;;35.40;31.60;;;;;;;2.03;91.30;100419.22;7391455;19;20364;-63
2023/12/06 10:43:56;;;;;;;33.75;29.98;;;;;;;1.99;91.51;100417.81;7391840;19;20378;-63
2023/12/06 10:46:24;;;;;;;36.58;32.58;;;;;;;1.98;91.92;100410.94;7392293;19;20349;-63
2023/12/06 10:48:56;;;;;;;35.65;31.75;;;;;;;1.99;91.54;100412.59;7390194;19;20860;-63
2023/12/06 10:51:24;;;;;;;36.17;32.30;;;;;;;2.01;91.68;100413.28;7391712;19;20369;-63
2023/12/06 10:53:52;;;;;;;36.33;32.33;;;;;;;2.00;91.79;100423.91;7392013;19;20419;-63
2023/12/06 10:56:19;;;;;;;36.10;32.20;;;;;;;1.97;91.32;100413.69;7387596;19;20340;-63
2023/12/06 10:58:47;;;;;;;35.05;31.20;;;;;;;1.93;91.40;100414.88;7391776;19;20393;-63
2023/12/06 11:01:15;;;;;;;35.80;32.00;;;;;;;1.88;91.67;100412.66;7393016;19;20348;-63
2023/12/06 11:03:42;;;;;;;37.28;32.67;;;;;;;1.86;91.52;100429.44;7390544;19;20394;-64
2023/12/06 11:06:25;;;;;;;35.80;31.90;;;;;;;1.77;91.94;100415.31;7392442;19;20373;-63
2023/12/06 11:09:14;;;;;;;37.15;32.78;;;;;;;1.78;92.14;100419.59;7392220;19;20420;-64
2023/12/06 11:11:56;;;;;;;39.47;35.00;;;;;;;1.79;92.35;100419.47;7391127;19;20376;-64
2023/12/06 11:15:00;;;;;;;38.17;33.97;;;;;;;1.81;92.41;100419.34;7392732;19;20867;-63
2023/12/06 11:17:32;;;;;;;36.72;32.72;;;;;;;1.83;91.96;100412.22;7393515;19;20359;-64
2023/12/06 11:19:59;;;;;;;35.03;31.23;;;;;;;1.78;91.63;100409.13;7392346;19;20368;-63
2023/12/06 11:22:27;;;;;;;37.03;32.80;;;;;;;1.80;91.72;100417.69;7392318;19;20337;-62